Alexandria, Minnesota
Current Conditions -  °F | °C
As of 4:53 PM on Tuesday 27 Jan 2015 (Local Time) from KAXN Reporting Station
Overcast Overcast  
Wind Chill: -6°   Ceiling: 700
Heat Index: -1°   Visibility: 8mi
Dew Point: -2°   Wind: 14mph
Humidity: 89%   Direction: 150°SSE
Pressure: 30.04"   Gusts: NA
Location:  45.89°N, 95.37°W
Report Text: KAXN 272253Z AUTO 15012KT 8SM OVC007 M01/M02 A3004 RMK AO2 SLP191 T10061022
Loading
Personal Weather Stations






























Interactive Weather Map New forecast layout! Learn more

10-Day Weather Forecast

Advertisements
Track Severe Weather on mobile